Time;durP1;ratioP1;P1;durP2;ratioP2;P2;SDS_P1;SDS_P2;PMS_P1;PMS_P2;Temp;Humidity;BMP_temperature;BMP_pressure;BME280_temperature;BME280_humidity;BME280_pressure;Samples;Min_cycle;Max_cycle;Signal;HPM_P1;HPM_P2
2022/05/07 00:01:50;;;;;;;1.90;1.30;;;;;;;22.38;45.54;99435.50;5110215;28;20048;-60
2022/05/07 00:04:15;;;;;;;3.35;1.30;;;;;;;22.37;45.97;99442.28;5109718;28;20048;-60
2022/05/07 00:06:41;;;;;;;1.73;1.20;;;;;;;22.38;45.87;99441.06;5110992;28;20032;-60
2022/05/07 00:09:06;;;;;;;2.65;1.50;;;;;;;22.37;45.62;99439.47;5110910;28;20352;-60
2022/05/07 00:11:32;;;;;;;2.33;1.63;;;;;;;22.37;45.79;99439.47;5110865;28;20086;-60
2022/05/07 00:13:57;;;;;;;2.20;1.50;;;;;;;22.37;45.91;99442.28;5111064;28;20040;-60
2022/05/07 00:19:06;;;;;;;1.85;1.10;;;;;;;22.36;45.81;99434.28;5110797;28;20073;-60
2022/05/07 00:21:31;;;;;;;1.98;1.38;;;;;;;22.37;45.90;99435.91;5110232;28;20406;-63
2022/05/07 00:23:57;;;;;;;1.70;1.23;;;;;;;22.36;46.07;99437.88;5110514;28;20040;-60
2022/05/07 00:26:23;;;;;;;1.90;1.30;;;;;;;22.36;46.16;99426.75;5110757;28;20466;-60
2022/05/07 00:28:48;;;;;;;1.70;1.20;;;;;;;22.35;46.20;99427.91;5110914;28;20031;-60
2022/05/07 00:31:13;;;;;;;1.70;1.20;;;;;;;22.36;45.93;99425.91;5110879;28;20044;-60
2022/05/07 00:33:39;;;;;;;1.75;1.25;;;;;;;22.34;45.74;99422.72;5110629;28;20507;-60
2022/05/07 00:36:07;;;;;;;2.20;1.45;;;;;;;22.34;45.93;99423.50;5110546;28;20036;-60
2022/05/07 00:38:32;;;;;;;1.63;1.17;;;;;;;22.34;46.22;99417.94;5091424;28;20506;-60
2022/05/07 00:40:59;;;;;;;2.33;1.67;;;;;;;22.33;46.06;99419.13;5070917;28;20036;-60
2022/05/07 00:43:24;;;;;;;2.13;1.42;;;;;;;22.32;45.69;99420.31;5089594;28;20048;-60
2022/05/07 00:45:51;;;;;;;1.65;1.17;;;;;;;22.33;46.28;99418.34;5090305;28;20055;-60
2022/05/07 00:48:16;;;;;;;2.00;1.38;;;;;;;22.32;46.14;99419.53;5090231;28;20048;-60
2022/05/07 00:53:27;;;;;;;2.20;1.30;;;;;;;22.29;46.03;99409.97;5090021;28;20066;-60
2022/05/07 00:55:53;;;;;;;1.88;1.40;;;;;;;22.30;45.78;99417.13;5090020;28;20051;-60
2022/05/07 00:58:19;;;;;;;2.20;1.50;;;;;;;22.29;45.86;99415.53;5089832;28;20127;-60
2022/05/07 01:00:45;;;;;;;1.65;1.13;;;;;;;22.31;46.32;99421.50;5089527;28;20036;-60
2022/05/07 01:03:11;;;;;;;1.88;1.27;;;;;;;22.30;45.90;99416.31;5089423;28;21051;-60
2022/05/07 01:05:36;;;;;;;1.67;1.20;;;;;;;22.29;46.15;99409.97;5089813;28;20048;-60
2022/05/07 01:08:02;;;;;;;1.88;1.30;;;;;;;22.29;46.26;99418.31;5123130;28;20108;-63
2022/05/07 01:10:28;;;;;;;2.00;1.33;;;;;;;22.30;46.17;99413.53;5130510;28;20042;-63
2022/05/07 01:12:57;;;;;;;2.00;1.33;;;;;;;22.29;46.23;99415.53;5130771;28;20055;-63
2022/05/07 01:15:23;;;;;;;1.75;1.30;;;;;;;22.30;46.05;99410.75;5131392;27;20703;-63
2022/05/07 01:17:48;;;;;;;2.00;1.40;;;;;;;22.32;46.14;99420.31;5134110;28;20044;-63
2022/05/07 01:20:14;;;;;;;1.95;1.42;;;;;;;22.72;45.04;99399.94;5133799;28;20053;-63
2022/05/07 01:22:41;;;;;;;1.80;1.40;;;;;;;22.75;45.10;99403.94;5133491;28;20491;-63
2022/05/07 01:25:07;;;;;;;2.17;1.60;;;;;;;22.67;45.15;99396.69;5134163;28;20065;-60
2022/05/07 01:27:33;;;;;;;1.92;1.40;;;;;;;22.58;45.56;99402.63;5133996;28;20047;-60
2022/05/07 01:29:58;;;;;;;1.63;1.13;;;;;;;22.55;45.62;99405.38;5133886;28;20035;-63
2022/05/07 01:32:24;;;;;;;1.60;1.20;;;;;;;22.48;45.63;99406.91;5134046;28;20418;-63
2022/05/07 01:34:51;;;;;;;1.77;1.35;;;;;;;22.43;45.59;99398.94;5133846;28;20044;-61
2022/05/07 01:37:18;;;;;;;1.95;1.30;;;;;;;22.40;45.77;99388.53;5133862;28;20122;-60
2022/05/07 01:39:43;;;;;;;2.30;1.48;;;;;;;22.38;45.82;99399.28;5133653;28;20039;-60
2022/05/07 01:42:09;;;;;;;1.65;1.25;;;;;;;22.38;45.90;99396.50;5133031;28;20092;-60
2022/05/07 01:44:35;;;;;;;1.60;1.20;;;;;;;22.35;45.93;99394.47;5133629;28;20055;-60
2022/05/07 01:49:45;;;;;;;2.05;1.25;;;;;;;22.32;46.12;99395.25;5133992;28;20050;-60
2022/05/07 01:52:14;;;;;;;1.77;1.17;;;;;;;22.31;45.94;99398.41;5133686;28;20035;-60
2022/05/07 01:54:39;;;;;;;1.63;1.20;;;;;;;22.31;46.19;99395.63;5133533;28;20046;-60
2022/05/07 01:57:05;;;;;;;1.80;1.30;;;;;;;22.32;46.45;99397.22;5133697;28;20043;-63
2022/05/07 01:59:30;;;;;;;1.90;1.23;;;;;;;22.28;46.26;99394.41;5133407;28;20582;-63
2022/05/07 02:01:56;;;;;;;2.53;1.30;;;;;;;22.27;46.31;99395.59;5133041;28;20054;-63
2022/05/07 02:04:21;;;;;;;1.90;1.20;;;;;;;22.29;46.15;99397.97;5114702;28;20177;-63
2022/05/07 02:06:47;;;;;;;1.35;1.00;;;;;;;22.27;46.19;99389.22;5133612;28;20517;-63
2022/05/07 02:09:12;;;;;;;1.92;1.30;;;;;;;22.27;46.21;99395.59;5133544;28;20130;-63
2022/05/07 02:11:38;;;;;;;1.63;1.20;;;;;;;22.28;46.26;99397.19;5133479;28;20556;-63
2022/05/07 02:14:04;;;;;;;1.55;1.13;;;;;;;22.26;46.33;99394.00;5133429;28;20035;-60
2022/05/07 02:16:30;;;;;;;1.70;1.20;;;;;;;22.27;46.21;99394.78;5133234;28;20055;-60
2022/05/07 02:18:56;;;;;;;2.05;1.23;;;;;;;22.26;46.19;99394.00;5133043;28;20510;-63
2022/05/07 02:21:21;;;;;;;1.75;1.20;;;;;;;22.24;46.27;99388.00;5132664;28;20045;-63
2022/05/07 02:23:47;;;;;;;1.88;1.30;;;;;;;22.26;45.92;99399.56;5133062;28;20039;-63
2022/05/07 02:26:12;;;;;;;1.95;1.08;;;;;;;22.25;46.27;99397.97;5133150;28;20049;-60
2022/05/07 02:28:37;;;;;;;1.63;1.20;;;;;;;22.25;46.24;99401.56;5132323;27;20144;-60
2022/05/07 02:31:03;;;;;;;1.67;1.20;;;;;;;22.22;46.03;99391.19;5133185;28;20050;-63
2022/05/07 02:33:28;;;;;;;1.83;1.30;;;;;;;22.21;45.80;99391.56;5133101;28;20096;-63
2022/05/07 02:35:54;;;;;;;1.75;1.10;;;;;;;22.21;46.02;99397.13;5133070;28;20384;-63
2022/05/07 02:38:19;;;;;;;1.55;1.13;;;;;;;22.20;46.02;99396.31;5132922;28;20071;-63
2022/05/07 02:43:28;;;;;;;2.15;1.20;;;;;;;22.22;45.98;99393.19;5132652;28;20406;-63
2022/05/07 02:45:54;;;;;;;1.90;1.10;;;;;;;22.22;45.93;99396.75;5132849;28;20039;-63
2022/05/07 02:48:19;;;;;;;1.60;1.10;;;;;;;22.22;45.91;99404.31;5132865;28;20527;-63
2022/05/07 02:50:45;;;;;;;2.08;1.20;;;;;;;22.23;45.82;99406.72;5132605;28;20076;-63
2022/05/07 02:53:10;;;;;;;1.60;1.10;;;;;;;22.23;45.62;99400.34;5132625;28;20518;-63
2022/05/07 02:55:35;;;;;;;1.80;1.30;;;;;;;22.22;45.66;99402.34;5132855;28;20096;-63
2022/05/07 02:58:01;;;;;;;1.95;1.33;;;;;;;22.19;45.87;99403.09;5132428;28;20126;-60
2022/05/07 03:00:26;;;;;;;1.50;1.10;;;;;;;22.23;45.67;99408.72;5132196;28;20230;-60
2022/05/07 03:02:52;;;;;;;2.10;1.27;;;;;;;22.21;46.02;99403.50;5131909;28;20074;-60
2022/05/07 03:05:17;;;;;;;1.67;1.10;;;;;;;22.22;45.82;99402.34;5132481;28;20043;-60
2022/05/07 03:07:42;;;;;;;1.50;1.17;;;;;;;22.22;45.99;99399.56;5132535;28;20043;-60
2022/05/07 03:10:08;;;;;;;1.42;1.00;;;;;;;22.22;45.75;99395.97;5132480;28;20453;-63
2022/05/07 03:12:34;;;;;;;1.67;1.23;;;;;;;22.23;45.71;99398.34;5132362;28;20039;-63
2022/05/07 03:14:59;;;;;;;1.83;1.20;;;;;;;22.23;45.75;99401.16;5132445;28;20092;-63
2022/05/07 03:17:26;;;;;;;1.70;1.20;;;;;;;22.24;45.89;99391.59;5132373;28;20045;-64
2022/05/07 03:19:52;;;;;;;1.50;1.10;;;;;;;22.29;45.66;99392.41;5132243;28;20043;-63
2022/05/07 03:22:17;;;;;;;1.88;1.30;;;;;;;22.29;45.68;99384.88;5131601;28;20077;-63
2022/05/07 03:24:42;;;;;;;1.13;0.90;;;;;;;22.35;45.73;99390.88;5131864;28;20120;-63
2022/05/07 03:27:08;;;;;;;1.63;1.02;;;;;;;22.36;45.86;99390.50;5132188;28;20502;-63
2022/05/07 03:29:34;;;;;;;1.77;1.17;;;;;;;22.39;45.71;99391.72;5131905;28;20525;-60
2022/05/07 03:31:59;;;;;;;1.52;1.05;;;;;;;22.38;45.62;99393.69;5131765;28;20549;-60
2022/05/07 03:34:25;;;;;;;2.45;1.20;;;;;;;22.42;45.50;99386.16;5131926;28;20035;-60
2022/05/07 03:36:50;;;;;;;1.60;1.13;;;;;;;22.42;45.47;99386.16;5131577;28;20070;-60
2022/05/07 03:39:16;;;;;;;2.10;1.20;;;;;;;22.44;45.59;99394.94;5131661;27;20046;-60
2022/05/07 03:41:41;;;;;;;1.50;1.15;;;;;;;22.45;45.55;99396.53;5131185;28;20100;-60
2022/05/07 03:44:07;;;;;;;1.58;1.13;;;;;;;22.47;45.45;99394.16;5131526;28;20047;-60
2022/05/07 03:46:32;;;;;;;1.60;1.20;;;;;;;22.47;45.69;99390.59;5131866;28;20043;-60
2022/05/07 03:48:58;;;;;;;1.50;1.10;;;;;;;22.47;45.68;99399.75;5131760;28;20418;-63
2022/05/07 03:51:23;;;;;;;1.55;1.13;;;;;;;22.49;45.48;99396.56;5131633;28;20065;-63
2022/05/07 03:53:49;;;;;;;1.75;1.10;;;;;;;22.48;45.56;99392.19;5131477;28;20506;-63
2022/05/07 03:56:14;;;;;;;1.33;1.05;;;;;;;22.49;45.28;99394.56;5131460;28;20043;-60
2022/05/07 03:58:39;;;;;;;1.45;1.00;;;;;;;22.48;45.50;99395.75;5129474;28;20043;-60
2022/05/07 04:01:05;;;;;;;1.65;1.10;;;;;;;22.49;45.37;99394.56;5131112;28;20065;-60
2022/05/07 04:03:31;;;;;;;2.22;1.15;;;;;;;22.51;45.67;99386.66;5131173;28;20120;-60
2022/05/07 04:05:57;;;;;;;1.20;0.93;;;;;;;22.49;45.18;99397.34;5131475;28;20447;-60
2022/05/07 04:08:23;;;;;;;2.03;1.20;;;;;;;22.50;45.61;99398.16;5131492;28;20050;-60
2022/05/07 04:10:50;;;;;;;1.88;1.17;;;;;;;22.51;45.62;99402.56;5131590;28;20046;-60
2022/05/07 04:13:18;;;;;;;1.73;1.20;;;;;;;22.52;45.58;99402.19;5131474;28;20107;-60
2022/05/07 04:15:44;;;;;;;1.40;1.10;;;;;;;22.51;45.54;99397.78;5131555;28;20062;-60
2022/05/07 04:18:10;;;;;;;1.20;0.82;;;;;;;22.51;45.29;99399.78;5131262;28;20047;-63
2022/05/07 04:20:36;;;;;;;1.90;1.23;;;;;;;22.52;45.44;99393.00;5130861;28;20425;-63
2022/05/07 04:23:03;;;;;;;1.70;1.20;;;;;;;22.51;45.37;99400.59;5130896;28;20486;-63
2022/05/07 04:25:28;;;;;;;1.95;1.10;;;;;;;22.52;45.45;99399.38;5131351;28;20043;-63
2022/05/07 04:27:54;;;;;;;1.58;1.10;;;;;;;22.52;45.62;99396.59;5131252;28;20418;-63
2022/05/07 04:30:23;;;;;;;1.83;1.20;;;;;;;22.53;45.63;99403.78;5131005;28;20047;-63
2022/05/07 04:32:50;;;;;;;1.50;1.10;;;;;;;22.53;45.67;99403.78;5130869;28;20127;-63
2022/05/07 04:35:16;;;;;;;1.73;1.13;;;;;;;22.53;45.55;99409.34;5131020;28;20047;-60
2022/05/07 04:37:41;;;;;;;1.67;1.02;;;;;;;22.54;45.48;99410.16;5130677;28;20087;-60
2022/05/07 04:40:08;;;;;;;1.58;1.15;;;;;;;22.54;45.71;99410.16;5130653;28;20433;-60
2022/05/07 04:42:34;;;;;;;1.77;1.20;;;;;;;22.53;45.80;99403.78;5130227;28;20581;-60
2022/05/07 04:44:59;;;;;;;1.45;1.05;;;;;;;22.53;45.85;99409.34;5130889;28;20184;-60
2022/05/07 04:47:24;;;;;;;1.48;1.02;;;;;;;22.53;45.66;99409.34;5098597;28;20047;-63
2022/05/07 04:49:50;;;;;;;1.63;1.10;;;;;;;22.52;45.44;99412.53;5130369;27;20142;-63
2022/05/07 04:52:15;;;;;;;1.83;1.30;;;;;;;22.54;45.45;99418.50;5130399;28;20043;-63
2022/05/07 04:54:41;;;;;;;1.80;1.27;;;;;;;22.54;45.71;99418.50;5130594;28;20063;-60
2022/05/07 04:57:07;;;;;;;1.70;1.20;;;;;;;22.53;45.62;99428.84;5130102;28;20039;-59
2022/05/07 04:59:32;;;;;;;1.30;1.00;;;;;;;22.53;45.64;99431.66;5130451;28;20416;-60
2022/05/07 05:01:57;;;;;;;1.70;1.20;;;;;;;22.53;45.67;99425.28;5130007;28;20043;-60
2022/05/07 05:04:23;;;;;;;1.70;1.10;;;;;;;22.53;45.73;99437.22;5130388;28;20039;-60
2022/05/07 05:06:48;;;;;;;1.50;1.10;;;;;;;22.53;45.49;99420.50;5112146;28;20043;-60
2022/05/07 05:09:14;;;;;;;1.42;1.10;;;;;;;22.54;45.71;99421.28;5130370;28;20511;-60
2022/05/07 05:11:39;;;;;;;1.50;1.00;;;;;;;22.54;45.36;99424.09;5130556;28;20169;-60
2022/05/07 05:15:01;;;;;;;1.55;1.10;;;;;;;22.54;45.33;99443.59;5130572;28;20039;-60
2022/05/07 05:16:51;;;;;;;1.35;1.08;;;;;;;22.53;45.60;99433.63;5129924;28;20043;-60
2022/05/07 05:19:17;;;;;;;1.38;1.00;;;;;;;22.53;45.50;99434.44;5130085;28;20158;-60
2022/05/07 05:21:43;;;;;;;2.38;1.15;;;;;;;22.55;45.69;99438.81;5129847;28;20566;-60
2022/05/07 05:24:08;;;;;;;1.40;1.08;;;;;;;22.53;45.78;99445.59;5129972;28;20540;-60
2022/05/07 05:26:34;;;;;;;1.17;0.93;;;;;;;22.55;45.66;99438.81;5130555;28;20051;-60
2022/05/07 05:29:00;;;;;;;1.63;1.10;;;;;;;22.54;45.49;99443.59;5130341;28;20414;-60
2022/05/07 05:31:25;;;;;;;1.65;1.10;;;;;;;22.54;45.57;99443.59;5130285;28;20570;-60
2022/05/07 05:33:50;;;;;;;1.48;1.00;;;;;;;22.55;45.67;99438.81;5130336;28;20074;-63
2022/05/07 05:36:16;;;;;;;1.52;1.02;;;;;;;22.55;45.84;99445.19;5130268;28;20047;-63
2022/05/07 05:38:41;;;;;;;1.67;1.15;;;;;;;22.55;45.48;99445.19;5130250;28;20039;-63
2022/05/07 05:41:07;;;;;;;1.48;1.20;;;;;;;22.55;45.51;99441.59;5129954;28;20039;-63
2022/05/07 05:43:32;;;;;;;1.27;0.90;;;;;;;22.53;45.13;99442.00;5129506;28;20055;-60
2022/05/07 05:45:58;;;;;;;1.50;1.00;;;;;;;22.55;45.42;99447.97;5130159;28;20043;-60
2022/05/07 05:48:27;;;;;;;1.58;1.17;;;;;;;22.56;45.30;99444.00;5130120;28;20118;-63
2022/05/07 05:50:52;;;;;;;1.55;1.02;;;;;;;22.53;45.27;99440.00;5129974;28;20062;-63
2022/05/07 05:53:17;;;;;;;1.45;1.00;;;;;;;22.55;45.19;99447.19;5130081;28;20035;-60
2022/05/07 05:55:43;;;;;;;1.73;1.10;;;;;;;22.54;45.25;99440.81;5129980;28;20395;-60
2022/05/07 05:58:08;;;;;;;1.20;1.00;;;;;;;22.55;45.37;99444.41;5129975;28;20043;-60
2022/05/07 06:00:34;;;;;;;2.30;1.05;;;;;;;22.55;45.24;99438.81;5129559;28;20414;-60
2022/05/07 06:02:59;;;;;;;1.60;1.08;;;;;;;22.55;45.35;99444.41;5130956;27;20055;-60
2022/05/07 06:05:25;;;;;;;1.55;1.10;;;;;;;22.54;45.48;99446.38;5133353;28;20044;-60
2022/05/07 06:07:50;;;;;;;1.90;1.13;;;;;;;22.55;45.50;99444.41;5133571;28;20050;-60
2022/05/07 06:10:16;;;;;;;1.38;0.95;;;;;;;22.53;45.42;99456.75;5133759;28;20528;-60
2022/05/07 06:12:41;;;;;;;1.58;0.93;;;;;;;22.56;45.58;99451.56;5133675;28;20047;-60
2022/05/07 06:15:08;;;;;;;1.60;1.10;;;;;;;22.57;45.54;99455.94;5133457;28;20073;-60
2022/05/07 06:17:33;;;;;;;1.45;1.08;;;;;;;22.56;45.75;99455.16;5133196;28;20104;-60
2022/05/07 06:19:58;;;;;;;1.70;1.20;;;;;;;22.55;45.41;99447.97;5133125;28;20039;-60
2022/05/07 06:22:24;;;;;;;1.50;1.10;;;;;;;22.56;45.38;99451.56;5132706;28;20146;-60
2022/05/07 06:27:33;;;;;;;1.40;1.08;;;;;;;22.56;45.67;99452.38;5133183;28;20069;-63
2022/05/07 06:30:03;;;;;;;1.60;1.17;;;;;;;22.56;45.73;99451.56;5132966;28;20502;-60
2022/05/07 06:32:37;;;;;;;1.48;1.10;;;;;;;22.56;45.69;99457.13;5133208;28;20099;-59
2022/05/07 06:35:06;;;;;;;1.65;1.30;;;;;;;22.56;45.83;99451.56;5133248;28;20039;-60
2022/05/07 06:37:32;;;;;;;1.73;1.23;;;;;;;22.58;45.84;99465.94;5132943;28;20054;-60
2022/05/07 06:39:59;;;;;;;1.60;1.08;;;;;;;22.57;45.55;99456.75;5132786;28;20088;-60
2022/05/07 06:42:24;;;;;;;1.80;1.20;;;;;;;22.56;45.43;99459.94;5132325;28;20080;-60
2022/05/07 06:44:50;;;;;;;1.73;1.13;;;;;;;22.57;45.67;99465.13;5132724;28;20475;-60
2022/05/07 06:47:16;;;;;;;1.55;1.00;;;;;;;22.58;45.94;99460.38;5132765;28;20035;-60
2022/05/07 06:49:45;;;;;;;1.40;1.10;;;;;;;22.57;45.86;99461.53;5132790;28;20564;-60
2022/05/07 06:52:11;;;;;;;1.33;1.00;;;;;;;22.58;45.67;99463.16;5132765;28;20071;-60
2022/05/07 06:54:36;;;;;;;1.77;1.20;;;;;;;22.60;45.62;99458.00;5132646;28;20614;-60
2022/05/07 06:57:03;;;;;;;1.70;1.20;;;;;;;22.59;45.66;99467.53;5132706;28;20037;-60
2022/05/07 06:59:30;;;;;;;1.48;1.08;;;;;;;22.59;45.54;99465.56;5132336;28;20039;-60
2022/05/07 07:01:57;;;;;;;2.22;1.48;;;;;;;22.59;45.48;99464.75;5132049;28;20050;-60
2022/05/07 07:04:23;;;;;;;1.50;1.10;;;;;;;22.58;45.46;99458.38;5132170;28;20137;-63
2022/05/07 07:06:49;;;;;;;1.63;1.20;;;;;;;22.58;45.40;99454.78;5132602;28;20130;-63
2022/05/07 07:09:15;;;;;;;2.45;1.40;;;;;;;22.57;45.42;99456.75;5132374;28;20051;-63
2022/05/07 07:11:41;;;;;;;1.92;1.33;;;;;;;22.60;45.18;99463.56;5132401;28;20047;-63
2022/05/07 07:14:06;;;;;;;1.63;1.20;;;;;;;22.57;45.29;99453.97;5132224;27;20035;-63
2022/05/07 07:16:32;;;;;;;1.98;1.45;;;;;;;22.60;45.11;99458.00;5132355;28;20047;-60
2022/05/07 07:18:57;;;;;;;1.90;1.30;;;;;;;22.61;45.22;99457.59;5132230;28;20039;-60
2022/05/07 07:21:22;;;;;;;2.03;1.38;;;;;;;22.59;45.15;99454.41;5131721;28;20074;-60
2022/05/07 07:23:48;;;;;;;1.95;1.20;;;;;;;22.60;45.37;99453.22;5131721;28;20035;-60
2022/05/07 07:26:14;;;;;;;1.77;1.20;;;;;;;22.60;45.49;99461.56;5132099;28;20055;-60
2022/05/07 07:28:40;;;;;;;1.70;1.20;;;;;;;22.59;45.32;99457.19;5132136;28;20563;-60
2022/05/07 07:31:08;;;;;;;1.70;1.20;;;;;;;22.62;45.35;99458.38;5132389;28;20046;-60
2022/05/07 07:33:34;;;;;;;1.75;1.20;;;;;;;22.61;45.40;99454.00;5132106;28;20047;-60
2022/05/07 07:35:59;;;;;;;1.67;1.17;;;;;;;22.61;45.35;99454.81;5132201;28;20065;-60
2022/05/07 07:38:26;;;;;;;1.48;1.00;;;;;;;22.61;45.41;99457.59;5132051;28;20417;-60
2022/05/07 07:40:53;;;;;;;2.22;1.30;;;;;;;22.62;45.56;99452.81;5131272;28;20082;-60
2022/05/07 07:43:20;;;;;;;1.90;1.40;;;;;;;22.60;45.37;99446.84;5131343;28;20051;-60
2022/05/07 07:48:30;;;;;;;1.67;1.25;;;;;;;22.62;45.36;99452.81;5131803;28;20410;-60
2022/05/07 07:50:56;;;;;;;2.05;1.25;;;;;;;22.64;45.41;99456.00;5131629;28;20069;-60
2022/05/07 07:53:24;;;;;;;2.17;1.50;;;;;;;22.64;45.17;99453.22;5131911;28;20053;-60
2022/05/07 07:55:51;;;;;;;1.70;1.20;;;;;;;22.64;45.23;99456.81;5131525;28;20039;-60
2022/05/07 07:58:17;;;;;;;1.73;1.27;;;;;;;22.64;45.00;99458.78;5131540;28;20051;-60
2022/05/07 08:00:44;;;;;;;1.60;1.20;;;;;;;22.64;45.40;99456.81;5131300;28;20448;-60
2022/05/07 08:03:17;;;;;;;1.65;1.15;;;;;;;22.64;45.43;99459.59;5130922;28;20047;-60
2022/05/07 08:05:47;;;;;;;1.77;1.30;;;;;;;22.64;45.20;99459.59;5131443;28;20074;-60
2022/05/07 08:13:43;;;;;;;2.85;1.40;;;;;;;22.65;45.28;99463.22;5131676;28;20054;-63
2022/05/07 08:16:10;;;;;;;1.98;1.17;;;;;;;22.66;45.18;99462.03;5131211;28;20562;-63
2022/05/07 08:18:36;;;;;;;1.98;1.30;;;;;;;22.66;45.28;99456.44;5131417;28;20460;-63
2022/05/07 08:21:03;;;;;;;1.80;1.20;;;;;;;22.67;45.23;99463.63;5130992;28;20457;-63
2022/05/07 08:23:28;;;;;;;1.75;1.20;;;;;;;22.66;45.02;99457.25;5130760;28;20043;-63
2022/05/07 08:25:54;;;;;;;1.70;1.20;;;;;;;22.66;45.28;99453.66;5130244;27;20103;-63
2022/05/07 08:28:20;;;;;;;2.00;1.30;;;;;;;22.66;45.13;99454.47;5131151;28;20039;-63
2022/05/07 08:30:46;;;;;;;1.60;1.20;;;;;;;22.67;45.02;99456.06;5131225;28;20103;-60
2022/05/07 08:33:12;;;;;;;1.85;1.30;;;;;;;22.67;44.96;99460.84;5131208;28;20050;-60
2022/05/07 08:35:38;;;;;;;1.80;1.30;;;;;;;22.66;45.10;99454.47;5131278;28;20035;-59
2022/05/07 08:38:04;;;;;;;1.88;1.27;;;;;;;22.66;45.13;99462.81;5131051;28;20426;-63
2022/05/07 08:40:29;;;;;;;1.58;1.20;;;;;;;22.68;45.07;99466.00;5130746;28;20078;-63
2022/05/07 08:42:56;;;;;;;2.00;1.50;;;;;;;22.69;45.25;99458.44;5130510;28;20410;-63
2022/05/07 08:45:21;;;;;;;1.80;1.30;;;;;;;22.68;45.10;99466.00;5130786;28;20051;-63
2022/05/07 08:47:52;;;;;;;2.08;1.40;;;;;;;22.69;45.23;99466.81;5131047;28;20057;-63
2022/05/07 08:50:17;;;;;;;1.73;1.23;;;;;;;22.66;45.40;99456.44;5130849;28;20035;-63
2022/05/07 08:52:44;;;;;;;1.83;1.30;;;;;;;22.68;45.08;99462.44;5130833;28;20059;-63
2022/05/07 08:55:18;;;;;;;1.80;1.30;;;;;;;22.69;44.97;99467.63;5130790;28;20047;-63
2022/05/07 08:57:48;;;;;;;1.85;1.27;;;;;;;22.69;45.24;99464.03;5130932;28;20069;-63
2022/05/07 09:00:16;;;;;;;2.10;1.40;;;;;;;22.69;45.06;99459.25;5130708;28;20103;-63
2022/05/07 09:02:48;;;;;;;1.83;1.30;;;;;;;22.70;45.13;99460.84;5130247;28;20070;-63
2022/05/07 09:05:18;;;;;;;1.90;1.30;;;;;;;22.70;45.22;99463.63;5130394;28;20047;-63
2022/05/07 09:07:54;;;;;;;1.83;1.20;;;;;;;22.69;45.26;99459.25;5128804;28;20043;-63
2022/05/07 09:10:23;;;;;;;1.63;1.20;;;;;;;22.71;45.45;99453.28;5130857;28;20065;-60
2022/05/07 09:12:49;;;;;;;2.10;1.40;;;;;;;22.69;45.43;99444.50;5130602;28;20032;-60
2022/05/07 09:15:14;;;;;;;1.80;1.30;;;;;;;22.71;45.08;99450.50;5130594;28;20040;-60
2022/05/07 09:17:39;;;;;;;1.75;1.23;;;;;;;22.70;45.10;99455.25;5130537;28;20046;-60
2022/05/07 09:20:12;;;;;;;2.20;1.60;;;;;;;22.70;45.26;99441.31;5130516;28;20039;-60
2022/05/07 09:22:56;;;;;;;2.83;1.30;;;;;;;22.71;45.18;99451.28;5129909;28;20526;-60
2022/05/07 09:25:24;;;;;;;1.58;1.20;;;;;;;22.71;45.16;99447.69;5130243;28;20054;-60
2022/05/07 09:27:51;;;;;;;1.98;1.30;;;;;;;22.71;45.19;99442.91;5130746;28;20062;-60
2022/05/07 09:30:24;;;;;;;2.08;1.38;;;;;;;22.72;45.26;99443.75;5130565;28;20043;-60
2022/05/07 09:32:52;;;;;;;1.98;1.42;;;;;;;22.73;45.23;99439.78;5130502;28;20040;-60
2022/05/07 09:38:04;;;;;;;1.55;1.10;;;;;;;22.73;45.29;99443.34;5133731;27;20107;-60
2022/05/07 09:40:30;;;;;;;1.58;1.17;;;;;;;22.74;45.36;99438.59;5133830;28;20043;-60
2022/05/07 09:42:59;;;;;;;1.42;1.10;;;;;;;22.75;45.13;99434.59;5133399;28;20055;-60
2022/05/07 09:45:30;;;;;;;2.00;1.40;;;;;;;22.75;45.38;99431.81;5133690;28;20120;-60
2022/05/07 09:47:57;;;;;;;2.10;1.30;;;;;;;22.74;45.11;99430.22;5133828;28;20039;-60
2022/05/07 09:50:25;;;;;;;1.77;1.20;;;;;;;22.75;44.89;99432.59;5134027;28;20050;-60
2022/05/07 09:58:20;;;;;;;1.48;1.20;;;;;;;22.76;45.03;99433.41;5133742;28;20042;-60
2022/05/07 10:01:07;;;;;;;1.90;1.40;;;;;;;22.74;44.86;99428.22;5133349;28;20068;-60
2022/05/07 10:04:02;;;;;;;1.65;1.20;;;;;;;22.74;44.99;99425.44;5133172;28;20053;-63
2022/05/07 10:06:34;;;;;;;2.10;1.42;;;;;;;22.75;44.75;99426.22;5133642;28;20051;-63
2022/05/07 10:09:13;;;;;;;1.70;1.30;;;;;;;22.75;44.58;99423.44;5133718;28;20043;-63
2022/05/07 10:11:38;;;;;;;2.20;1.60;;;;;;;22.74;45.04;99416.28;5133639;28;20043;-63
2022/05/07 10:14:04;;;;;;;1.95;1.33;;;;;;;22.77;44.90;99421.06;5133804;28;20043;-60
2022/05/07 10:16:30;;;;;;;1.98;1.33;;;;;;;22.78;44.83;99425.44;5133398;28;20046;-60
2022/05/07 10:18:56;;;;;;;1.80;1.10;;;;;;;22.75;44.63;99418.66;5133518;28;20130;-60
2022/05/07 10:21:22;;;;;;;1.60;1.20;;;;;;;22.76;44.69;99411.91;5132888;28;20118;-60
2022/05/07 10:23:55;;;;;;;1.65;1.10;;;;;;;22.77;44.71;99410.72;5133007;28;20067;-60
2022/05/07 10:26:39;;;;;;;1.77;1.27;;;;;;;22.79;44.44;99401.97;5133359;28;20044;-60
2022/05/07 10:29:06;;;;;;;1.65;1.20;;;;;;;22.79;44.26;99408.34;5133465;28;20066;-63
2022/05/07 10:31:44;;;;;;;1.52;1.17;;;;;;;22.77;44.37;99402.34;5133356;28;20108;-63
2022/05/07 10:34:10;;;;;;;1.77;1.25;;;;;;;22.80;44.71;99395.19;5133291;28;20073;-63
2022/05/07 10:36:35;;;;;;;1.70;1.27;;;;;;;22.80;44.53;99401.56;5133101;28;20043;-63
2022/05/07 10:39:08;;;;;;;1.45;1.10;;;;;;;22.80;44.02;99403.56;5132922;28;20043;-63
2022/05/07 10:41:46;;;;;;;1.55;1.00;;;;;;;22.81;44.12;99405.16;5132584;28;20130;-63
2022/05/07 10:44:11;;;;;;;2.05;1.40;;;;;;;22.83;43.94;99399.19;5132398;28;20115;-60
2022/05/07 10:46:45;;;;;;;1.45;1.00;;;;;;;22.83;44.02;99397.19;5133035;28;20399;-60
2022/05/07 10:49:11;;;;;;;1.67;1.17;;;;;;;22.83;44.11;99396.41;5132099;27;20514;-60
2022/05/07 10:51:39;;;;;;;1.52;1.10;;;;;;;22.82;44.01;99398.41;5132868;28;20087;-60
2022/05/07 10:54:22;;;;;;;1.88;1.30;;;;;;;22.83;44.16;99399.19;5130807;28;20039;-60
2022/05/07 10:56:53;;;;;;;2.03;1.40;;;;;;;22.82;43.96;99387.25;5132822;28;20047;-60
2022/05/07 10:59:20;;;;;;;2.13;1.58;;;;;;;22.84;44.14;99384.84;5132752;28;20050;-63
2022/05/07 11:01:46;;;;;;;1.70;1.20;;;;;;;22.84;43.90;99395.22;5132350;28;20100;-63
2022/05/07 11:04:13;;;;;;;1.70;1.10;;;;;;;22.85;44.09;99388.44;5095480;28;20048;-63
2022/05/07 11:06:51;;;;;;;1.60;1.20;;;;;;;22.85;43.87;99389.25;5132673;28;20043;-63
2022/05/07 11:09:24;;;;;;;1.70;1.10;;;;;;;22.85;44.04;99386.44;5132591;28;20056;-63
2022/05/07 11:11:55;;;;;;;2.05;1.35;;;;;;;22.85;43.97;99375.28;5132498;28;20043;-63
2022/05/07 11:14:31;;;;;;;1.77;1.33;;;;;;;22.86;43.84;99382.53;5132450;28;20118;-60
2022/05/07 11:16:57;;;;;;;1.75;1.25;;;;;;;22.87;44.03;99372.16;5132607;28;20039;-60
2022/05/07 11:19:31;;;;;;;1.65;1.10;;;;;;;22.87;43.78;99375.75;5132364;28;20046;-60
2022/05/07 11:21:59;;;;;;;2.35;1.50;;;;;;;22.87;43.69;99370.19;5131961;28;20039;-60
2022/05/07 11:24:25;;;;;;;1.70;1.20;;;;;;;22.88;43.68;99370.97;5131872;28;20055;-60
2022/05/07 11:26:56;;;;;;;1.63;1.30;;;;;;;22.87;43.79;99370.19;5132269;28;20387;-60
2022/05/07 11:29:23;;;;;;;1.50;1.10;;;;;;;22.87;43.98;99364.59;5131970;28;20043;-60
2022/05/07 11:31:54;;;;;;;1.98;1.35;;;;;;;22.88;43.82;99362.59;5131941;28;20050;-60
2022/05/07 11:34:33;;;;;;;1.65;1.15;;;;;;;22.88;43.79;99363.41;5132124;28;20074;-60
2022/05/07 11:37:14;;;;;;;1.77;1.23;;;;;;;22.89;44.02;99358.63;5132224;28;20067;-60
2022/05/07 11:39:46;;;;;;;1.95;1.30;;;;;;;22.88;43.83;99354.25;5131798;28;20031;-60
2022/05/07 11:42:12;;;;;;;3.50;1.50;;;;;;;22.94;44.09;99355.47;5131528;28;20401;-60
2022/05/07 11:47:22;;;;;;;2.05;1.40;;;;;;;22.93;44.07;99346.31;5131943;28;20124;-60
2022/05/07 11:50:06;;;;;;;1.67;1.10;;;;;;;22.97;43.92;99344.31;5123854;27;20131;-60
2022/05/07 11:52:32;;;;;;;1.98;1.30;;;;;;;22.95;44.09;99343.13;5114991;27;20062;-60
2022/05/07 11:55:04;;;;;;;2.40;1.30;;;;;;;23.02;43.87;99343.16;5152503;27;20418;-60
2022/05/07 11:57:31;;;;;;;2.63;1.40;;;;;;;23.00;43.96;99348.31;5152816;27;20042;-60
2022/05/07 11:59:57;;;;;;;5.22;1.27;;;;;;;23.00;43.97;99339.94;5136328;27;20036;-61
2022/05/07 12:02:23;;;;;;;4.72;1.50;;;;;;;22.98;44.04;99345.91;5125113;28;20051;-60
2022/05/07 12:05:00;;;;;;;5.43;1.55;;;;;;;22.97;44.22;99344.31;5129221;28;20119;-60
2022/05/07 12:07:25;;;;;;;2.35;1.40;;;;;;;23.01;44.48;99338.78;5126584;27;20541;-64